Time;durP1;ratioP1;P1;durP2;ratioP2;P2;SDS_P1;SDS_P2;PMS_P1;PMS_P2;Temp;Humidity;BMP_temperature;BMP_pressure;BME280_temperature;BME280_humidity;BME280_pressure;Samples;Min_cycle;Max_cycle;Signal;HPM_P1;HPM_P2
2023/07/10 00:01:56;;;;;;;6.22;2.03;;;;;;;-142.75;100.00;76367.53;4984732;28;20030;-61
2023/07/10 00:04:21;;;;;;;6.35;2.03;;;;;;;-142.75;100.00;76367.53;4985694;28;20026;-59
2023/07/10 00:06:47;;;;;;;3.63;1.98;;;;;;;-142.75;100.00;76363.59;4986056;28;20062;-59
2023/07/10 00:09:13;;;;;;;4.55;2.03;;;;;;;-142.75;100.00;76361.63;4985768;28;20093;-61
2023/07/10 00:11:40;;;;;;;4.60;2.30;;;;;;;-142.75;100.00;76361.63;4985651;28;20121;-61
2023/07/10 00:14:17;;;;;;;8.27;2.15;;;;;;;-142.75;100.00;76353.78;4985572;28;20085;-61
2023/07/10 00:16:43;;;;;;;9.60;2.20;;;;;;;-142.75;100.00;76361.63;4985420;28;20037;-61
2023/07/10 00:19:13;;;;;;;8.10;2.13;;;;;;;-142.75;100.00;76345.91;4985076;28;20026;-60
2023/07/10 00:21:39;;;;;;;5.95;1.77;;;;;;;-142.75;100.00;76371.47;4985557;28;20081;-61
2023/07/10 00:24:04;;;;;;;5.93;1.73;;;;;;;-142.75;100.00;76381.31;4985893;28;20041;-61
2023/07/10 00:26:30;;;;;;;5.68;1.70;;;;;;;-142.75;100.00;76391.16;4985679;28;20514;-60
2023/07/10 00:28:57;;;;;;;4.97;2.40;;;;;;;-142.75;100.00;76385.25;5004867;28;20018;-61
2023/07/10 00:31:26;;;;;;;6.05;2.13;;;;;;;-142.75;100.00;76383.28;5005158;28;20064;-61
2023/07/10 00:33:53;;;;;;;5.40;1.88;;;;;;;-142.75;100.00;76373.44;5005061;28;20067;-61
2023/07/10 00:36:31;;;;;;;9.70;2.30;;;;;;;-142.75;100.00;76357.69;5004877;28;20505;-61
2023/07/10 00:39:01;;;;;;;6.55;1.83;;;;;;;-142.75;100.00;76357.69;5005183;28;20076;-61
2023/07/10 00:41:32;;;;;;;7.88;1.85;;;;;;;-142.75;100.00;76369.50;4985156;28;20026;-60
2023/07/10 00:44:00;;;;;;;5.22;2.30;;;;;;;-142.75;100.00;76369.50;4985343;28;20033;-61
2023/07/10 00:46:57;;;;;;;12.10;2.17;;;;;;;-142.75;100.00;76357.69;4984747;28;20394;-61
2023/07/10 00:49:46;;;;;;;6.43;2.10;;;;;;;-142.75;100.00;76363.59;5003715;28;20217;-61
2023/07/10 00:52:26;;;;;;;4.28;1.80;;;;;;;-142.75;100.00;76365.56;5003950;28;20032;-61
2023/07/10 00:54:54;;;;;;;4.85;1.80;;;;;;;-142.75;100.00;76365.56;4990945;28;20370;-60
2023/07/10 00:57:33;;;;;;;2.95;1.83;;;;;;;-142.75;100.00;76363.59;4991089;28;20507;-60
2023/07/10 00:59:58;;;;;;;5.25;1.77;;;;;;;-142.75;100.00;76381.31;4986803;28;20056;-61
2023/07/10 01:02:24;;;;;;;8.50;2.10;;;;;;;-142.75;100.00;76383.28;4991084;28;20740;-61
2023/07/10 01:04:59;;;;;;;7.55;2.42;;;;;;;-142.75;100.00;76387.22;4989389;28;20041;-61
2023/07/10 01:07:27;;;;;;;5.05;2.00;;;;;;;-142.75;100.00;76402.97;4989466;28;20018;-61
2023/07/10 01:10:01;;;;;;;5.72;1.73;;;;;;;-142.75;100.00;76420.69;4989592;28;20029;-61
2023/07/10 01:12:29;;;;;;;3.63;1.67;;;;;;;-142.75;100.00;76432.50;4987416;28;20030;-62
2023/07/10 01:14:54;;;;;;;5.60;1.60;;;;;;;-142.75;100.00;76467.94;4990700;28;20606;-61
2023/07/10 01:17:19;;;;;;;2.97;1.75;;;;;;;-142.75;100.00;76489.59;4988369;28;20037;-61
2023/07/10 01:19:46;;;;;;;5.05;2.28;;;;;;;-142.75;100.00;76499.44;4989105;28;20498;-61
2023/07/10 01:22:12;;;;;;;3.53;1.42;;;;;;;-142.75;100.00;76511.25;4989374;28;20537;-61
2023/07/10 01:24:38;;;;;;;5.78;1.77;;;;;;;-142.75;100.00;76548.63;4995909;28;20026;-61
2023/07/10 01:27:06;;;;;;;2.85;1.40;;;;;;;-142.75;100.00;76527.00;4992277;28;20494;-59
2023/07/10 01:29:41;;;;;;;3.25;1.25;;;;;;;-142.75;100.00;76517.16;4992107;28;20140;-61
2023/07/10 01:32:09;;;;;;;5.30;1.50;;;;;;;-142.75;100.00;76513.22;5005015;28;20080;-61
2023/07/10 01:34:39;;;;;;;4.32;1.17;;;;;;;-142.75;100.00;76532.88;5007922;28;20034;-61
2023/07/10 01:37:06;;;;;;;5.82;2.00;;;;;;;-142.75;100.00;76536.84;5008070;28;20029;-61
2023/07/10 01:39:48;;;;;;;3.72;1.30;;;;;;;-142.75;100.00;76519.13;5008732;28;20420;-61
2023/07/10 01:42:14;;;;;;;5.60;1.30;;;;;;;-142.75;100.00;76554.53;5008042;28;20036;-62
2023/07/10 01:44:44;;;;;;;3.65;1.35;;;;;;;-142.75;100.00;76532.88;5008007;28;20029;-61
2023/07/10 01:47:11;;;;;;;2.50;1.05;;;;;;;-142.75;100.00;76552.56;5008192;28;20030;-61
2023/07/10 01:49:47;;;;;;;6.75;1.52;;;;;;;-142.75;100.00;76544.69;5007660;28;20032;-61
2023/07/10 01:52:16;;;;;;;5.40;1.45;;;;;;;-142.75;100.00;76542.72;5007642;28;20098;-62
2023/07/10 01:54:42;;;;;;;3.80;1.60;;;;;;;-142.75;100.00;76576.19;5007784;28;20759;-61
2023/07/10 01:57:10;;;;;;;2.85;1.15;;;;;;;-142.75;100.00;76572.25;5007674;28;20030;-60
2023/07/10 01:59:35;;;;;;;2.15;0.90;;;;;;;-142.75;100.00;76566.34;5007350;28;20022;-61
2023/07/10 02:02:01;;;;;;;2.40;1.20;;;;;;;-142.75;100.00;76570.28;5008078;28;20129;-61
2023/07/10 02:04:27;;;;;;;6.05;1.30;;;;;;;-142.75;100.00;76568.31;5007526;28;20697;-61
2023/07/10 02:06:56;;;;;;;3.78;1.20;;;;;;;-142.75;100.00;76584.06;5007222;28;20042;-62
2023/07/10 02:09:24;;;;;;;5.95;1.63;;;;;;;-142.75;100.00;76552.56;5007624;28;20014;-61
2023/07/10 02:11:49;;;;;;;2.20;1.10;;;;;;;-142.75;100.00;76550.59;5007435;28;20103;-61
2023/07/10 02:14:15;;;;;;;2.00;0.82;;;;;;;-142.75;100.00;76554.53;5007211;28;20081;-61
2023/07/10 02:16:40;;;;;;;3.40;1.05;;;;;;;-142.75;100.00;76540.75;5007351;28;20105;-61
2023/07/10 02:19:07;;;;;;;2.60;0.90;;;;;;;-142.75;100.00;76542.72;5006745;28;20077;-61
2023/07/10 02:21:32;;;;;;;2.70;1.38;;;;;;;-142.75;100.00;76540.75;5007598;28;20030;-61
2023/07/10 02:23:58;;;;;;;4.03;0.98;;;;;;;-142.75;100.00;76538.78;5007450;28;20508;-61
2023/07/10 02:26:24;;;;;;;4.32;1.50;;;;;;;-142.75;100.00;76536.84;5007310;28;20208;-60
2023/07/10 02:28:49;;;;;;;2.15;0.90;;;;;;;-142.75;100.00;76534.84;5006810;28;20025;-61
2023/07/10 02:31:15;;;;;;;3.75;1.00;;;;;;;-142.75;100.00;76536.84;5006483;28;20044;-61
2023/07/10 02:33:40;;;;;;;2.22;1.05;;;;;;;-142.75;100.00;76527.00;5006062;28;20036;-61
2023/07/10 02:36:06;;;;;;;2.80;1.17;;;;;;;-142.75;100.00;76523.06;5006855;28;20545;-61
2023/07/10 02:38:32;;;;;;;6.25;1.20;;;;;;;-142.75;100.00;76523.06;4986361;28;20478;-59
2023/07/10 02:40:59;;;;;;;6.20;1.45;;;;;;;-142.75;100.00;76513.22;4987451;28;20034;-60
2023/07/10 02:43:25;;;;;;;3.53;1.10;;;;;;;-142.75;100.00;76513.22;4987514;28;20027;-60
2023/07/10 02:45:50;;;;;;;4.15;1.27;;;;;;;-142.75;100.00;76523.06;4987377;28;20033;-60
2023/07/10 02:48:16;;;;;;;3.10;1.17;;;;;;;-142.75;100.00;76519.13;4986934;28;20110;-61
2023/07/10 02:50:42;;;;;;;4.05;1.05;;;;;;;-142.75;100.00;76519.13;4987478;28;20076;-61
2023/07/10 02:53:08;;;;;;;4.82;1.58;;;;;;;-142.75;100.00;76517.16;4986958;28;20061;-61
2023/07/10 02:55:33;;;;;;;4.35;1.10;;;;;;;-142.75;100.00;76515.19;4987426;28;20110;-61
2023/07/10 02:58:00;;;;;;;4.90;1.40;;;;;;;-142.75;100.00;76511.25;4986650;28;20030;-61
2023/07/10 03:00:25;;;;;;;5.82;1.42;;;;;;;-142.75;100.00;76519.13;4987463;28;20026;-60
2023/07/10 03:02:54;;;;;;;2.83;1.10;;;;;;;-142.75;100.00;76515.19;4986995;28;20088;-61
2023/07/10 03:05:20;;;;;;;2.17;1.13;;;;;;;-142.75;100.00;76519.13;4987290;28;20533;-61
2023/07/10 03:07:45;;;;;;;4.38;1.30;;;;;;;-142.75;100.00;76523.06;4987195;28;20064;-61
2023/07/10 03:10:11;;;;;;;4.30;1.50;;;;;;;-142.75;100.00;76530.91;4989852;28;20105;-61
2023/07/10 03:12:36;;;;;;;4.10;1.17;;;;;;;-142.75;100.00;76528.97;5006207;28;20077;-60
2023/07/10 03:15:01;;;;;;;4.00;1.27;;;;;;;-142.75;100.00;76532.88;5006693;28;20033;-61
2023/07/10 03:17:27;;;;;;;3.20;1.00;;;;;;;-142.75;100.00;76527.00;5005949;28;20515;-60
2023/07/10 03:19:52;;;;;;;4.47;1.40;;;;;;;-142.75;100.00;76530.91;5005549;28;20026;-60
2023/07/10 03:22:19;;;;;;;5.75;1.10;;;;;;;-142.75;100.00;76527.00;5005953;28;20057;-61
2023/07/10 03:24:44;;;;;;;4.18;1.10;;;;;;;-142.75;100.00;76528.97;5006092;28;20021;-60
2023/07/10 03:27:09;;;;;;;5.55;2.13;;;;;;;-142.75;100.00;76527.00;5006002;28;20037;-61
2023/07/10 03:29:36;;;;;;;5.70;1.48;;;;;;;-142.75;100.00;76530.91;5005204;28;20053;-60
2023/07/10 03:32:02;;;;;;;4.15;1.75;;;;;;;-142.75;100.00;76527.00;5006937;28;20056;-60
2023/07/10 03:34:27;;;;;;;3.75;1.30;;;;;;;-142.75;100.00;76530.91;5005876;28;20734;-59
2023/07/10 03:36:53;;;;;;;2.78;1.20;;;;;;;-142.75;100.00;76538.78;5005888;28;20026;-61
2023/07/10 03:39:18;;;;;;;1.95;1.10;;;;;;;-142.75;100.00;76544.69;5005974;28;20022;-61
2023/07/10 03:41:43;;;;;;;6.97;1.30;;;;;;;-142.75;100.00;76540.75;5005880;28;20101;-61
2023/07/10 03:44:10;;;;;;;4.28;1.38;;;;;;;-142.75;100.00;76554.53;5005074;28;20038;-60
2023/07/10 03:46:36;;;;;;;7.60;2.10;;;;;;;-142.75;100.00;76546.66;5005399;28;20061;-61
2023/07/10 03:49:02;;;;;;;3.28;1.10;;;;;;;-142.75;100.00;76546.66;5005263;28;20072;-60
2023/07/10 03:51:27;;;;;;;5.10;1.50;;;;;;;-142.75;100.00;76546.66;5005433;28;20030;-60
2023/07/10 03:53:52;;;;;;;6.13;1.40;;;;;;;-142.75;100.00;76550.59;5005328;28;20028;-61
2023/07/10 03:56:17;;;;;;;4.57;1.30;;;;;;;-142.75;100.00;76556.50;5005078;28;20481;-60
2023/07/10 03:58:45;;;;;;;2.78;0.98;;;;;;;-142.75;100.00;76546.66;4989180;28;20026;-59
2023/07/10 04:01:11;;;;;;;5.13;1.40;;;;;;;-142.75;100.00;76546.66;4986335;28;20030;-61
2023/07/10 04:03:38;;;;;;;3.97;1.17;;;;;;;-142.75;100.00;76540.75;4985927;28;20049;-61
2023/07/10 04:06:04;;;;;;;4.63;1.40;;;;;;;-142.75;100.00;76554.53;4986062;28;20023;-61
2023/07/10 04:08:35;;;;;;;8.43;1.50;;;;;;;-142.75;100.00;76540.75;4986474;28;20030;-59
2023/07/10 04:11:04;;;;;;;7.20;1.42;;;;;;;-142.75;100.00;76538.78;4986284;28;20497;-61
2023/07/10 04:13:29;;;;;;;5.70;1.33;;;;;;;-142.75;100.00;76546.66;4985595;28;20061;-60
2023/07/10 04:16:06;;;;;;;4.72;1.67;;;;;;;-142.75;100.00;76542.72;4985763;28;20257;-61
2023/07/10 04:18:36;;;;;;;3.78;1.50;;;;;;;-142.75;100.00;76540.75;4985368;28;20043;-60
2023/07/10 04:21:05;;;;;;;7.38;1.90;;;;;;;-142.75;100.00;76534.84;4985562;28;20030;-61
2023/07/10 04:23:30;;;;;;;4.25;1.17;;;;;;;-142.75;100.00;76530.91;4985817;28;20030;-60
2023/07/10 04:25:55;;;;;;;6.50;1.67;;;;;;;-142.75;100.00;76523.06;4985469;28;20053;-60
2023/07/10 04:28:21;;;;;;;4.57;1.63;;;;;;;-142.75;100.00;76523.06;4985074;28;20036;-60
2023/07/10 04:30:48;;;;;;;7.82;2.08;;;;;;;-142.75;100.00;76517.16;4985412;28;20943;-61
2023/07/10 04:33:15;;;;;;;6.35;1.83;;;;;;;-142.75;100.00;76507.31;4985918;28;20033;-61
2023/07/10 04:35:44;;;;;;;5.90;1.60;;;;;;;-142.75;100.00;76503.38;5004902;28;20030;-60
2023/07/10 04:38:10;;;;;;;5.53;1.77;;;;;;;-142.75;100.00;76515.19;5003535;28;20044;-61
2023/07/10 04:40:35;;;;;;;3.72;1.80;;;;;;;-142.75;100.00;76509.28;5004874;28;20025;-61
2023/07/10 04:43:03;;;;;;;5.32;1.63;;;;;;;-142.75;100.00;76497.47;5004873;28;20038;-59
2023/07/10 04:45:29;;;;;;;5.90;1.85;;;;;;;-142.75;100.00;76509.28;5004834;28;20481;-60
2023/07/10 04:47:54;;;;;;;4.05;1.60;;;;;;;-142.75;100.00;76519.13;4996914;28;20061;-61
2023/07/10 04:50:21;;;;;;;3.03;1.20;;;;;;;-142.75;100.00;76503.38;4987950;28;20049;-59
2023/07/10 04:52:46;;;;;;;5.13;1.52;;;;;;;-142.75;100.00;76495.50;4985039;28;20494;-59
2023/07/10 04:55:11;;;;;;;3.22;1.10;;;;;;;-142.75;100.00;76503.38;4983749;28;20026;-61
2023/07/10 04:57:37;;;;;;;7.22;1.92;;;;;;;-142.75;100.00;76491.56;4984932;28;20033;-60
2023/07/10 05:00:02;;;;;;;4.78;1.23;;;;;;;-142.75;100.00;76479.75;4983413;28;20091;-61
2023/07/10 05:02:28;;;;;;;6.25;1.45;;;;;;;-142.75;100.00;76475.81;4985370;28;20521;-61
2023/07/10 05:04:53;;;;;;;6.53;1.65;;;;;;;-142.75;100.00;76471.88;4984851;28;20018;-61
2023/07/10 05:07:18;;;;;;;4.75;1.50;;;;;;;-142.75;100.00;76477.78;4984921;28;20054;-60
2023/07/10 05:09:44;;;;;;;4.93;1.27;;;;;;;-142.75;100.00;76483.69;4992017;28;20024;-61
2023/07/10 05:12:09;;;;;;;3.83;1.27;;;;;;;-142.75;100.00;76473.84;5004116;28;20045;-61
2023/07/10 05:14:34;;;;;;;4.93;1.20;;;;;;;-142.75;100.00;76467.94;5004637;28;20116;-61
2023/07/10 05:17:00;;;;;;;5.97;2.03;;;;;;;-142.75;100.00;76479.75;5004559;28;20501;-61
2023/07/10 05:19:26;;;;;;;3.78;1.20;;;;;;;-142.75;100.00;76479.75;5004164;28;20030;-61
2023/07/10 05:21:51;;;;;;;5.85;1.55;;;;;;;-142.75;100.00;76469.91;5004266;28;20535;-58
2023/07/10 05:24:17;;;;;;;5.22;1.02;;;;;;;-142.75;100.00;76462.03;5002610;28;20030;-61
2023/07/10 05:26:42;;;;;;;8.85;1.60;;;;;;;-142.75;100.00;76444.31;5004159;28;20053;-61
2023/07/10 05:29:07;;;;;;;5.50;1.20;;;;;;;-142.75;100.00;76444.31;5003543;28;20105;-61
2023/07/10 05:31:33;;;;;;;5.50;1.42;;;;;;;-142.75;100.00;76440.38;5004504;28;20409;-61
2023/07/10 05:33:59;;;;;;;7.28;1.73;;;;;;;-142.75;100.00;76442.34;5004087;28;20045;-59
2023/07/10 05:36:24;;;;;;;4.47;1.60;;;;;;;-142.75;100.00;76426.59;5003964;28;20493;-61
2023/07/10 05:38:49;;;;;;;4.68;1.02;;;;;;;-142.75;100.00;76430.53;5004226;28;20029;-61
2023/07/10 05:41:16;;;;;;;3.38;1.35;;;;;;;-142.75;100.00;76434.47;5003427;28;20053;-61
2023/07/10 05:43:41;;;;;;;6.03;1.67;;;;;;;-142.75;100.00;76414.78;4987021;28;20105;-60
2023/07/10 05:46:07;;;;;;;2.28;1.00;;;;;;;-142.75;100.00;76401.00;4984579;28;20141;-58
2023/07/10 05:48:33;;;;;;;9.02;1.25;;;;;;;-142.75;100.00;76401.00;4984636;28;20062;-59
2023/07/10 05:50:59;;;;;;;5.50;1.35;;;;;;;-142.75;100.00;76397.06;4984419;28;20045;-60
2023/07/10 05:53:26;;;;;;;6.22;1.67;;;;;;;-142.75;100.00;76401.00;4984502;28;20077;-60
2023/07/10 05:55:54;;;;;;;4.15;1.25;;;;;;;-142.75;100.00;76395.09;4985256;28;20454;-60
2023/07/10 05:58:21;;;;;;;8.57;2.28;;;;;;;-142.75;100.00;76416.75;4984041;28;20034;-60
2023/07/10 06:00:48;;;;;;;7.25;1.30;;;;;;;-142.75;100.00;76401.00;4985150;28;20105;-62
2023/07/10 06:03:13;;;;;;;4.97;1.20;;;;;;;-142.75;100.00;76402.97;4984750;28;20386;-62
2023/07/10 06:05:39;;;;;;;4.60;1.73;;;;;;;-142.75;100.00;76401.00;4984789;28;20034;-62
2023/07/10 06:08:05;;;;;;;5.35;1.05;;;;;;;-142.75;100.00;76397.06;4988019;28;20041;-63
2023/07/10 06:10:32;;;;;;;9.57;1.70;;;;;;;-142.75;100.00;76371.47;4988189;28;20022;-63
2023/07/10 06:12:58;;;;;;;5.07;1.17;;;;;;;-142.75;100.00;76373.44;4988002;28;20073;-63
2023/07/10 06:15:23;;;;;;;9.13;1.40;;;;;;;-142.75;100.00;76375.41;4987901;28;20490;-62
2023/07/10 06:17:49;;;;;;;8.90;1.17;;;;;;;-142.75;100.00;76351.81;4987777;28;20450;-63
2023/07/10 06:20:14;;;;;;;10.85;1.50;;;;;;;-142.75;100.00;76314.41;4987242;28;20037;-63
2023/07/10 06:22:40;;;;;;;8.23;1.58;;;;;;;-142.75;100.00;76304.56;4987757;28;20026;-63
2023/07/10 06:25:05;;;;;;;12.25;1.70;;;;;;;-142.75;100.00;76314.41;4987608;28;20034;-61
2023/07/10 06:27:31;;;;;;;7.28;1.70;;;;;;;-142.75;100.00;76328.19;4987717;28;20030;-63
2023/07/10 06:29:58;;;;;;;6.28;1.65;;;;;;;-142.75;100.00;76302.59;4986222;28;20022;-63
2023/07/10 06:32:23;;;;;;;7.57;1.33;;;;;;;-142.75;100.00;76332.13;4988436;28;20022;-63
2023/07/10 06:34:49;;;;;;;4.75;1.13;;;;;;;-142.75;100.00;76310.47;4987309;28;20109;-62
2023/07/10 06:37:14;;;;;;;7.47;1.38;;;;;;;-142.75;100.00;76286.84;4987600;28;20121;-63
2023/07/10 06:39:39;;;;;;;7.90;1.65;;;;;;;-142.75;100.00;76290.78;4987593;28;20108;-63
2023/07/10 06:42:05;;;;;;;8.35;1.50;;;;;;;-142.75;100.00;76273.06;4987362;28;20030;-64
2023/07/10 06:44:30;;;;;;;7.25;1.40;;;;;;;-142.75;100.00;76253.38;4987416;28;20226;-63
2023/07/10 06:46:56;;;;;;;8.27;1.40;;;;;;;-142.75;100.00;76265.19;4987249;28;20034;-64
2023/07/10 06:49:21;;;;;;;5.25;1.48;;;;;;;-142.75;100.00;76243.53;4986907;28;20015;-63
2023/07/10 06:51:46;;;;;;;7.32;1.42;;;;;;;-142.75;100.00;76267.16;4986809;28;20065;-63
2023/07/10 06:54:12;;;;;;;9.18;1.95;;;;;;;-142.75;100.00;76273.06;5003436;28;20056;-63
2023/07/10 06:56:37;;;;;;;5.63;1.25;;;;;;;-142.75;100.00;76255.34;5006100;28;20036;-63
2023/07/10 06:59:02;;;;;;;3.30;1.08;;;;;;;-142.75;100.00;76243.53;5006022;28;20291;-63
2023/07/10 07:01:28;;;;;;;5.90;1.25;;;;;;;-142.75;100.00;76241.56;5006558;28;20030;-63
2023/07/10 07:03:53;;;;;;;6.75;1.27;;;;;;;-142.75;100.00;76217.94;5006761;28;20025;-63
2023/07/10 07:06:19;;;;;;;6.70;1.55;;;;;;;-142.75;100.00;76206.13;5006476;28;20482;-63
2023/07/10 07:08:50;;;;;;;5.57;1.00;;;;;;;-142.75;100.00;76202.19;5001034;28;20064;-63
2023/07/10 07:11:16;;;;;;;5.20;1.50;;;;;;;-142.75;100.00;76188.44;5005736;28;20575;-63
2023/07/10 07:13:41;;;;;;;7.10;1.35;;;;;;;-142.75;100.00;76210.06;4987365;28;20027;-63
2023/07/10 07:16:06;;;;;;;10.48;2.58;;;;;;;-142.75;100.00;76164.81;4986502;28;20034;-63
2023/07/10 07:18:32;;;;;;;5.03;1.48;;;;;;;-142.75;100.00;76160.88;4989667;28;20025;-64
2023/07/10 07:20:58;;;;;;;5.07;1.25;;;;;;;-142.75;100.00;76156.94;5006324;28;20034;-63
2023/07/10 07:23:24;;;;;;;3.65;1.30;;;;;;;-142.75;100.00;76117.56;4997705;28;20022;-63
2023/07/10 07:25:50;;;;;;;6.13;0.95;;;;;;;-142.75;100.00;76125.44;4995948;28;20041;-63
2023/07/10 07:28:15;;;;;;;5.20;1.55;;;;;;;-142.75;100.00;76105.75;4989655;28;20130;-63
2023/07/10 07:30:47;;;;;;;5.03;1.08;;;;;;;-142.75;100.00;76123.47;4988125;28;20033;-64
2023/07/10 07:33:17;;;;;;;6.05;1.08;;;;;;;-142.75;100.00;76133.31;4988324;28;20062;-64
2023/07/10 07:35:42;;;;;;;4.55;1.25;;;;;;;-142.75;100.00;76119.53;4987885;28;20041;-63
2023/07/10 07:38:07;;;;;;;5.82;1.23;;;;;;;-142.75;100.00;76133.31;4987812;28;20458;-64
2023/07/10 07:40:33;;;;;;;4.70;1.10;;;;;;;-142.75;100.00;76101.81;4988635;28;20038;-64
2023/07/10 07:42:58;;;;;;;6.90;1.00;;;;;;;-142.75;100.00;76113.63;4988064;28;20023;-64
2023/07/10 07:45:24;;;;;;;2.92;0.85;;;;;;;-142.75;100.00;76121.50;4988237;28;20062;-64
2023/07/10 07:47:49;;;;;;;5.18;0.90;;;;;;;-142.75;100.00;76101.81;4988314;28;20018;-64
2023/07/10 07:50:14;;;;;;;5.13;1.10;;;;;;;-142.75;100.00;76109.69;4987499;28;20504;-65
2023/07/10 07:52:40;;;;;;;9.13;1.45;;;;;;;-142.75;100.00;76068.38;4987949;28;20449;-64
2023/07/10 07:55:06;;;;;;;2.92;0.85;;;;;;;-142.75;100.00;76078.19;4987796;28;20420;-64
2023/07/10 07:57:31;;;;;;;5.47;0.90;;;;;;;-142.75;100.00;76097.88;4987614;28;20022;-64
2023/07/10 07:59:58;;;;;;;5.63;1.17;;;;;;;-142.75;100.00;76060.50;4988959;28;20057;-64
2023/07/10 08:02:23;;;;;;;7.10;1.05;;;;;;;-142.75;100.00;76088.03;4987453;28;20026;-65
2023/07/10 08:04:49;;;;;;;3.95;0.68;;;;;;;-142.75;100.00;76066.41;4987417;28;20548;-62
2023/07/10 08:07:14;;;;;;;5.32;1.23;;;;;;;-142.75;100.00;76101.81;4987543;28;20056;-62
2023/07/10 08:09:39;;;;;;;5.65;0.90;;;;;;;-142.75;100.00;76062.47;4987322;28;20018;-62
2023/07/10 08:12:05;;;;;;;5.15;0.88;;;;;;;-142.75;100.00;76064.44;4987628;28;20026;-64
2023/07/10 08:14:31;;;;;;;5.47;0.80;;;;;;;-142.75;100.00;76074.25;4987390;28;20034;-62
2023/07/10 08:16:56;;;;;;;3.00;0.70;;;;;;;-142.75;100.00;76050.66;4987242;28;20026;-63
2023/07/10 08:19:22;;;;;;;3.13;0.90;;;;;;;-142.75;100.00;76062.47;4987025;28;20026;-62
2023/07/10 08:21:47;;;;;;;5.10;1.10;;;;;;;-142.75;100.00;76078.19;4987085;28;20028;-63
2023/07/10 08:24:13;;;;;;;10.27;1.33;;;;;;;-142.75;100.00;76048.69;4987229;28;20034;-62
2023/07/10 08:26:38;;;;;;;4.97;1.00;;;;;;;-142.75;100.00;76038.84;4986652;28;20093;-62
2023/07/10 08:29:23;;;;;;;5.35;0.93;;;;;;;-142.75;100.00;76001.44;4986867;28;20030;-63
2023/07/10 08:31:48;;;;;;;5.00;1.02;;;;;;;-142.75;100.00;76086.06;4987287;28;20042;-62
2023/07/10 08:34:13;;;;;;;6.95;1.33;;;;;;;-142.75;100.00;76060.50;4987201;28;20484;-62
2023/07/10 08:36:39;;;;;;;6.05;1.17;;;;;;;-142.75;100.00;76027.03;4986741;28;20072;-63
2023/07/10 08:39:04;;;;;;;7.10;1.38;;;;;;;-142.75;100.00;76007.34;4985698;28;20028;-63
2023/07/10 08:41:30;;;;;;;4.18;1.40;;;;;;;-142.75;100.00;75979.78;4986856;28;20484;-62
2023/07/10 08:43:55;;;;;;;4.55;1.00;;;;;;;-142.75;100.00;75981.75;4986755;28;20485;-62
2023/07/10 08:46:26;;;;;;;6.28;1.20;;;;;;;-142.75;100.00;75962.09;4987571;28;20501;-62
2023/07/10 08:49:13;;;;;;;7.20;1.27;;;;;;;-142.75;100.00;75948.31;4997529;28;20080;-62
2023/07/10 08:52:08;;;;;;;2.17;0.77;;;;;;;-142.75;97.81;75946.34;5006468;28;20030;-62
2023/07/10 08:54:33;;;;;;;7.15;1.48;;;;;;;-142.75;100.00;75934.53;5006491;28;20411;-63
2023/07/10 08:57:14;;;;;;;6.88;1.60;;;;;;;-142.75;100.00;75891.22;5006297;28;20026;-63
2023/07/10 08:59:54;;;;;;;4.40;1.10;;;;;;;-142.75;100.00;75906.97;5005956;28;20489;-62
2023/07/10 09:02:40;;;;;;;4.20;0.90;;;;;;;-142.75;100.00;75877.44;5006281;28;20030;-63
2023/07/10 09:05:10;;;;;;;8.13;1.15;;;;;;;-142.75;98.38;75895.16;5006156;28;20048;-64
2023/07/10 09:07:42;;;;;;;6.35;1.40;;;;;;;-142.75;99.89;75861.69;5005980;28;20056;-64
2023/07/10 09:10:17;;;;;;;5.38;1.40;;;;;;;-142.75;96.38;75893.19;5006283;28;20504;-62
2023/07/10 09:12:49;;;;;;;4.63;1.40;;;;;;;-142.75;94.94;75908.94;5005299;28;20029;-62
2023/07/10 09:15:19;;;;;;;5.13;1.40;;;;;;;-142.75;96.03;75942.41;4988487;28;20496;-63
2023/07/10 09:18:03;;;;;;;6.38;1.23;;;;;;;-142.75;100.00;75936.50;4990273;28;20076;-61
2023/07/10 09:20:29;;;;;;;6.07;1.00;;;;;;;-142.75;100.00;75924.69;5000492;28;20026;-63
2023/07/10 09:22:59;;;;;;;4.57;1.13;;;;;;;-142.75;100.00;75932.56;5005648;28;20404;-63
2023/07/10 09:25:26;;;;;;;6.10;1.30;;;;;;;-142.75;98.41;75922.72;5005780;28;20049;-62
2023/07/10 09:27:51;;;;;;;6.05;1.20;;;;;;;-142.75;93.50;75958.16;5005834;28;20100;-62
2023/07/10 09:30:26;;;;;;;5.07;1.10;;;;;;;-142.75;100.00;75944.38;5005502;28;20097;-63
2023/07/10 09:33:08;;;;;;;7.70;1.13;;;;;;;-142.75;97.64;75905.00;5005944;28;20030;-65
2023/07/10 09:35:35;;;;;;;2.20;0.85;;;;;;;-142.75;98.05;75903.03;5005607;28;20062;-65
2023/07/10 09:38:01;;;;;;;4.05;0.80;;;;;;;-142.75;93.40;75905.00;5020407;28;20034;-63
2023/07/10 09:40:35;;;;;;;3.72;0.88;;;;;;;-142.75;94.99;75916.81;5006162;28;20026;-63
2023/07/10 09:43:03;;;;;;;6.53;1.23;;;;;;;-142.75;100.00;75918.78;5005225;28;20030;-64
2023/07/10 09:45:35;;;;;;;3.38;1.50;;;;;;;-142.75;100.00;75910.91;4985986;28;20029;-63
2023/07/10 09:48:01;;;;;;;3.22;1.23;;;;;;;-142.75;95.46;75922.72;4984207;28;20446;-65
2023/07/10 09:50:26;;;;;;;2.42;0.82;;;;;;;-142.75;98.04;75912.88;4985870;28;20105;-65
2023/07/10 09:52:54;;;;;;;7.80;1.00;;;;;;;-142.75;94.32;75877.44;4991322;28;20065;-65
2023/07/10 09:55:19;;;;;;;5.13;1.20;;;;;;;-142.75;93.32;75859.72;4989238;28;20077;-64
2023/07/10 09:58:00;;;;;;;7.00;1.30;;;;;;;-142.75;89.15;75869.56;4989088;28;20022;-63
2023/07/10 10:00:26;;;;;;;2.58;0.90;;;;;;;-142.75;97.33;75861.69;4989322;28;20022;-64
2023/07/10 10:03:00;;;;;;;5.50;1.02;;;;;;;-142.75;97.36;75873.50;4989260;28;20023;-65
2023/07/10 10:05:26;;;;;;;3.40;1.15;;;;;;;-142.75;91.62;75905.00;4989014;28;20401;-65
2023/07/10 10:07:59;;;;;;;3.03;1.02;;;;;;;-142.75;100.00;75873.50;4989458;28;20105;-64
2023/07/10 10:10:26;;;;;;;6.70;1.10;;;;;;;-142.75;100.00;75830.22;4989050;28;20022;-64
2023/07/10 10:12:57;;;;;;;2.10;0.55;;;;;;;-142.75;91.33;75786.91;4989085;28;20026;-65
2023/07/10 10:15:32;;;;;;;2.35;0.60;;;;;;;-142.75;96.77;75735.75;4989343;28;20176;-64
2023/07/10 10:18:01;;;;;;;4.35;0.98;;;;;;;-142.75;86.65;75749.53;4989084;28;20026;-65
2023/07/10 10:20:30;;;;;;;4.20;0.88;;;;;;;-142.75;88.44;75708.19;4988750;28;20029;-64
2023/07/10 10:22:57;;;;;;;6.78;1.05;;;;;;;-142.75;81.43;75761.34;4992821;28;20064;-65
2023/07/10 10:25:33;;;;;;;4.10;0.90;;;;;;;-142.75;81.84;75757.41;4990305;28;20030;-65
2023/07/10 10:28:17;;;;;;;3.85;1.23;;;;;;;-142.75;84.73;75759.38;4991224;28;20022;-65
2023/07/10 10:30:49;;;;;;;5.30;0.90;;;;;;;-142.75;89.30;75720.00;4988817;28;20030;-64
2023/07/10 10:33:27;;;;;;;4.25;1.00;;;;;;;-142.75;85.71;75692.44;4991812;28;20030;-64
2023/07/10 10:36:12;;;;;;;4.95;0.95;;;;;;;-142.75;87.14;75651.13;4989345;28;20029;-64
2023/07/10 10:38:51;;;;;;;6.30;1.38;;;;;;;-142.75;80.84;75637.34;4988663;28;20506;-64
2023/07/10 10:41:29;;;;;;;5.07;0.90;;;;;;;-142.75;78.77;75592.09;4989435;28;20038;-64
2023/07/10 10:44:05;;;;;;;6.97;1.10;;;;;;;-142.75;78.47;75627.50;4989497;28;20052;-65
2023/07/10 10:46:51;;;;;;;5.85;1.00;;;;;;;-142.75;79.86;75645.22;4990119;28;20084;-64
2023/07/10 10:49:37;;;;;;;4.82;0.80;;;;;;;-142.75;80.73;75613.72;4982100;28;20034;-64
2023/07/10 10:52:03;;;;;;;6.57;1.00;;;;;;;-142.75;80.14;75657.03;5009184;28;20088;-64
2023/07/10 10:55:16;;;;;;;3.63;0.80;;;;;;;-142.75;82.09;75639.31;5008047;28;20018;-65
2023/07/10 10:58:06;;;;;;;5.88;1.17;;;;;;;-142.75;80.23;75662.94;4999836;28;20028;-65
2023/07/10 11:00:46;;;;;;;2.75;0.70;;;;;;;-142.75;78.71;75721.97;4998731;28;20517;-65
2023/07/10 11:03:28;;;;;;;5.40;1.35;;;;;;;-142.75;81.11;75716.06;5008655;28;20033;-65
2023/07/10 11:05:58;;;;;;;3.78;0.60;;;;;;;-142.75;81.16;75666.88;5009067;28;20083;-66
2023/07/10 11:08:38;;;;;;;3.92;0.95;;;;;;;-142.75;82.46;75684.56;4998621;28;20112;-65
2023/07/10 11:11:09;;;;;;;5.65;1.25;;;;;;;-142.75;81.24;75696.38;4989490;28;20042;-65
2023/07/10 11:13:37;;;;;;;4.95;1.30;;;;;;;-142.75;81.66;75696.38;4989432;28;20148;-66
2023/07/10 11:16:05;;;;;;;6.00;1.10;;;;;;;-142.75;80.86;75723.94;4989199;28;20026;-65